sensor_id;sensor_type;location;lat;lon;timestamp;pressure;altitude;pressure_sealevel;temperature;humidity
69622;BME280;56841;55.964;37.674;2023-02-17T00:00:21;100365.16;;;-5.41;70.12
69622;BME280;56841;55.964;37.674;2023-02-17T00:02:47;100363.47;;;-5.42;70.75
69622;BME280;56841;55.964;37.674;2023-02-17T00:05:14;100358.53;;;-5.48;70.58
69622;BME280;56841;55.964;37.674;2023-02-17T00:07:39;100363.38;;;-5.39;70.86
69622;BME280;56841;55.964;37.674;2023-02-17T00:10:06;100355.69;;;-5.14;69.84
69622;BME280;56841;55.964;37.674;2023-02-17T00:12:32;100360.38;;;-4.98;69.46
69622;BME280;56841;55.964;37.674;2023-02-17T00:14:58;100349.09;;;-4.96;69.23
69622;BME280;56841;55.964;37.674;2023-02-17T00:17:24;100365.06;;;-5.11;69.31
69622;BME280;56841;55.964;37.674;2023-02-17T00:19:53;100363.41;;;-5.12;69.70
69622;BME280;56841;55.964;37.674;2023-02-17T00:22:19;100362.22;;;-5.04;69.54
69622;BME280;56841;55.964;37.674;2023-02-17T00:24:44;100356.06;;;-4.98;69.71
69622;BME280;56841;55.964;37.674;2023-02-17T00:27:10;100352.94;;;-4.83;68.88
69622;BME280;56841;55.964;37.674;2023-02-17T00:29:36;100356.00;;;-4.71;68.95
69622;BME280;56841;55.964;37.674;2023-02-17T00:32:03;100353.78;;;-4.57;67.99
69622;BME280;56841;55.964;37.674;2023-02-17T00:34:29;100353.78;;;-4.57;68.28
69622;BME280;56841;55.964;37.674;2023-02-17T00:36:54;100353.00;;;-4.59;67.48
69622;BME280;56841;55.964;37.674;2023-02-17T00:39:20;100360.63;;;-4.56;67.67
69622;BME280;56841;55.964;37.674;2023-02-17T00:41:48;100358.28;;;-4.39;67.20
69622;BME280;56841;55.964;37.674;2023-02-17T00:44:15;100350.22;;;-4.30;66.69
69622;BME280;56841;55.964;37.674;2023-02-17T00:46:43;100349.19;;;-4.49;67.25
69622;BME280;56841;55.964;37.674;2023-02-17T00:49:18;100352.69;;;-4.75;67.62
69622;BME280;56841;55.964;37.674;2023-02-17T00:51:45;100351.81;;;-4.74;67.73
69622;BME280;56841;55.964;37.674;2023-02-17T00:54:11;100349.06;;;-4.69;67.69
69622;BME280;56841;55.964;37.674;2023-02-17T00:56:37;100352.31;;;-4.89;68.34
69622;BME280;56841;55.964;37.674;2023-02-17T00:59:03;100344.09;;;-4.76;67.98
69622;BME280;56841;55.964;37.674;2023-02-17T01:01:29;100338.63;;;-4.66;68.43
69622;BME280;56841;55.964;37.674;2023-02-17T01:03:55;100341.03;;;-4.85;68.67
69622;BME280;56841;55.964;37.674;2023-02-17T01:06:27;100340.91;;;-4.82;69.00
69622;BME280;56841;55.964;37.674;2023-02-17T01:08:53;100335.91;;;-4.87;69.05
69622;BME280;56841;55.964;37.674;2023-02-17T01:11:25;100343.94;;;-4.96;69.42
69622;BME280;56841;55.964;37.674;2023-02-17T01:13:51;100343.94;;;-4.96;69.49
69622;BME280;56841;55.964;37.674;2023-02-17T01:16:27;100338.00;;;-4.73;68.74
69622;BME280;56841;55.964;37.674;2023-02-17T01:18:53;100335.25;;;-4.68;68.11
69622;BME280;56841;55.964;37.674;2023-02-17T01:21:22;100332.28;;;-4.81;68.72
69622;BME280;56841;55.964;37.674;2023-02-17T01:23:49;100330.72;;;-4.85;69.30
69622;BME280;56841;55.964;37.674;2023-02-17T01:26:18;100323.25;;;-4.68;68.75
69622;BME280;56841;55.964;37.674;2023-02-17T01:28:44;100329.03;;;-4.61;68.34
69622;BME280;56841;55.964;37.674;2023-02-17T01:31:11;100330.75;;;-4.38;67.51
69622;BME280;56841;55.964;37.674;2023-02-17T01:33:37;100328.88;;;-4.33;67.34
69622;BME280;56841;55.964;37.674;2023-02-17T01:36:05;100330.63;;;-4.59;67.54
69622;BME280;56841;55.964;37.674;2023-02-17T01:38:31;100335.16;;;-4.65;68.09
69622;BME280;56841;55.964;37.674;2023-02-17T01:40:58;100331.22;;;-4.76;68.55
69622;BME280;56841;55.964;37.674;2023-02-17T01:43:24;100330.72;;;-4.85;68.91
69622;BME280;56841;55.964;37.674;2023-02-17T01:46:14;100332.13;;;-4.77;68.20
69622;BME280;56841;55.964;37.674;2023-02-17T01:48:48;100330.63;;;-4.59;68.32
69622;BME280;56841;55.964;37.674;2023-02-17T01:54:10;100335.41;;;-4.24;67.07
69622;BME280;56841;55.964;37.674;2023-02-17T01:56:40;100335.19;;;-4.18;66.40
69622;BME280;56841;55.964;37.674;2023-02-17T01:59:12;100328.69;;;-4.29;66.56
69622;BME280;56841;55.964;37.674;2023-02-17T02:01:40;100328.03;;;-4.34;66.06
69622;BME280;56841;55.964;37.674;2023-02-17T02:04:07;100337.63;;;-4.37;66.71
69622;BME280;56841;55.964;37.674;2023-02-17T02:06:34;100345.06;;;-4.30;66.75
69622;BME280;56841;55.964;37.674;2023-02-17T02:09:03;100338.59;;;-4.18;66.41
69622;BME280;56841;55.964;37.674;2023-02-17T02:11:31;100338.28;;;-4.09;65.88
69622;BME280;56841;55.964;37.674;2023-02-17T02:13:58;100344.78;;;-3.98;65.41
69622;BME280;56841;55.964;37.674;2023-02-17T02:22:37;100334.31;;;-4.66;67.50
69622;BME280;56841;55.964;37.674;2023-02-17T02:31:11;100333.78;;;-4.50;67.96
69622;BME280;56841;55.964;37.674;2023-02-17T02:33:49;100323.53;;;-4.52;67.59
69622;BME280;56841;55.964;37.674;2023-02-17T02:36:50;100323.19;;;-4.43;68.25
69622;BME280;56841;55.964;37.674;2023-02-17T02:39:19;100334.03;;;-4.58;68.07
69622;BME280;56841;55.964;37.674;2023-02-17T02:44:14;100332.97;;;-4.76;69.04
69622;BME280;56841;55.964;37.674;2023-02-17T02:46:40;100330.56;;;-4.81;69.15
69622;BME280;56841;55.964;37.674;2023-02-17T02:49:06;100332.97;;;-4.76;69.51
69622;BME280;56841;55.964;37.674;2023-02-17T02:51:50;100334.16;;;-4.86;70.02
69622;BME280;56841;55.964;37.674;2023-02-17T03:02:47;100340.13;;;-4.84;70.31
69622;BME280;56841;55.964;37.674;2023-02-17T03:08:01;100343.81;;;-4.91;71.01
69622;BME280;56841;55.964;37.674;2023-02-17T03:10:28;100337.38;;;-4.80;70.64
69622;BME280;56841;55.964;37.674;2023-02-17T03:12:55;100338.22;;;-4.79;70.38
69622;BME280;56841;55.964;37.674;2023-02-17T03:15:27;100341.28;;;-4.68;69.13
69622;BME280;56841;55.964;37.674;2023-02-17T03:17:57;100343.16;;;-4.73;69.77
69622;BME280;56841;55.964;37.674;2023-02-17T03:20:24;100342.44;;;-4.77;69.88
69622;BME280;56841;55.964;37.674;2023-02-17T03:22:50;100337.66;;;-4.87;70.88
69622;BME280;56841;55.964;37.674;2023-02-17T03:25:16;100333.34;;;-4.87;71.49
69622;BME280;56841;55.964;37.674;2023-02-17T03:27:43;100327.25;;;-4.84;71.25
69622;BME280;56841;55.964;37.674;2023-02-17T03:30:10;100333.50;;;-4.91;71.53
69622;BME280;56841;55.964;37.674;2023-02-17T03:32:36;100325.72;;;-4.90;71.21
69622;BME280;56841;55.964;37.674;2023-02-17T03:35:02;100327.16;;;-4.81;71.21
69622;BME280;56841;55.964;37.674;2023-02-17T03:37:29;100329.19;;;-4.91;71.48
69622;BME280;56841;55.964;37.674;2023-02-17T03:39:55;100335.63;;;-4.79;70.89
69622;BME280;56841;55.964;37.674;2023-02-17T03:42:21;100329.38;;;-4.72;71.11
69622;BME280;56841;55.964;37.674;2023-02-17T03:44:47;100324.22;;;-4.72;70.86
69622;BME280;56841;55.964;37.674;2023-02-17T03:47:12;100331.13;;;-4.72;70.88
69622;BME280;56841;55.964;37.674;2023-02-17T03:49:38;100328.91;;;-4.83;71.33
69622;BME280;56841;55.964;37.674;2023-02-17T03:52:04;100325.56;;;-4.85;71.54
69622;BME280;56841;55.964;37.674;2023-02-17T03:54:29;100334.53;;;-4.97;72.02
69622;BME280;56841;55.964;37.674;2023-02-17T03:56:55;100326.88;;;-4.73;71.03
69622;BME280;56841;55.964;37.674;2023-02-17T03:59:21;100334.13;;;-4.85;71.18
69622;BME280;56841;55.964;37.674;2023-02-17T04:01:47;100339.69;;;-4.97;72.23
69622;BME280;56841;55.964;37.674;2023-02-17T04:04:13;100336.72;;;-4.85;71.96
69622;BME280;56841;55.964;37.674;2023-02-17T04:06:39;100342.34;;;-4.98;72.47
69622;BME280;56841;55.964;37.674;2023-02-17T04:09:05;100330.94;;;-4.91;72.11
69622;BME280;56841;55.964;37.674;2023-02-17T04:11:31;100334.34;;;-4.91;72.67
69622;BME280;56841;55.964;37.674;2023-02-17T04:13:56;100344.56;;;-4.89;72.59
69622;BME280;56841;55.964;37.674;2023-02-17T04:16:22;100334.88;;;-4.81;72.28
69622;BME280;56841;55.964;37.674;2023-02-17T04:18:48;100339.16;;;-4.57;70.66
69622;BME280;56841;55.964;37.674;2023-02-17T04:21:13;100343.09;;;-4.46;69.74
69622;BME280;56841;55.964;37.674;2023-02-17T04:23:39;100342.13;;;-4.67;70.07
69622;BME280;56841;55.964;37.674;2023-02-17T04:26:06;100339.81;;;-4.75;70.84
69622;BME280;56841;55.964;37.674;2023-02-17T04:28:31;100339.53;;;-4.67;71.10
69622;BME280;56841;55.964;37.674;2023-02-17T04:30:58;100344.84;;;-4.72;71.54
69622;BME280;56841;55.964;37.674;2023-02-17T04:33:24;100343.63;;;-4.87;71.97
69622;BME280;56841;55.964;37.674;2023-02-17T04:35:51;100335.97;;;-4.88;72.67
69622;BME280;56841;55.964;37.674;2023-02-17T04:38:28;100331.59;;;-4.86;73.03
69622;BME280;56841;55.964;37.674;2023-02-17T04:40:55;100328.16;;;-4.85;72.68
69622;BME280;56841;55.964;37.674;2023-02-17T04:43:22;100321.19;;;-4.83;72.55
69622;BME280;56841;55.964;37.674;2023-02-17T04:45:49;100321.16;;;-4.82;72.37
69622;BME280;56841;55.964;37.674;2023-02-17T04:48:15;100320.91;;;-4.76;72.09
69622;BME280;56841;55.964;37.674;2023-02-17T04:50:41;100323.34;;;-4.71;72.31
69622;BME280;56841;55.964;37.674;2023-02-17T04:53:06;100323.91;;;-4.63;71.58
69622;BME280;56841;55.964;37.674;2023-02-17T04:55:32;100329.41;;;-4.48;71.51
69622;BME280;56841;55.964;37.674;2023-02-17T04:57:59;100335.97;;;-4.40;70.77
69622;BME280;56841;55.964;37.674;2023-02-17T05:00:25;100345.97;;;-4.31;70.72
69622;BME280;56841;55.964;37.674;2023-02-17T05:02:51;100340.75;;;-4.29;70.54
69622;BME280;56841;55.964;37.674;2023-02-17T05:05:17;100340.34;;;-4.42;70.04
69622;BME280;56841;55.964;37.674;2023-02-17T05:07:44;100333.09;;;-4.31;70.32
69622;BME280;56841;55.964;37.674;2023-02-17T05:10:12;100336.88;;;-4.17;69.78
69622;BME280;56841;55.964;37.674;2023-02-17T05:12:38;100330.84;;;-4.16;69.32
69622;BME280;56841;55.964;37.674;2023-02-17T05:15:04;100332.16;;;-4.06;69.30
69622;BME280;56841;55.964;37.674;2023-02-17T05:17:31;100333.31;;;-3.91;68.80
69622;BME280;56841;55.964;37.674;2023-02-17T05:19:57;100338.72;;;-3.97;68.25
69622;BME280;56841;55.964;37.674;2023-02-17T05:22:23;100339.63;;;-3.98;68.05
69622;BME280;56841;55.964;37.674;2023-02-17T05:24:49;100336.13;;;-3.97;68.46
69622;BME280;56841;55.964;37.674;2023-02-17T05:27:15;100336.44;;;-3.83;67.82
69622;BME280;56841;55.964;37.674;2023-02-17T05:29:40;100332.91;;;-3.81;67.45
69622;BME280;56841;55.964;37.674;2023-02-17T05:32:06;100334.13;;;-3.89;67.45
69622;BME280;56841;55.964;37.674;2023-02-17T05:34:33;100337.75;;;-3.95;67.85
69622;BME280;56841;55.964;37.674;2023-02-17T05:36:59;100330.44;;;-3.84;67.55
69622;BME280;56841;55.964;37.674;2023-02-17T05:39:25;100333.50;;;-3.74;67.40
69622;BME280;56841;55.964;37.674;2023-02-17T05:41:50;100331.72;;;-3.72;67.20
69622;BME280;56841;55.964;37.674;2023-02-17T05:44:16;100327.31;;;-3.70;67.36
69622;BME280;56841;55.964;37.674;2023-02-17T05:46:42;100327.03;;;-3.62;67.22
69622;BME280;56841;55.964;37.674;2023-02-17T05:49:08;100332.25;;;-3.64;67.11
69622;BME280;56841;55.964;37.674;2023-02-17T05:51:33;100331.03;;;-3.77;67.10
69622;BME280;56841;55.964;37.674;2023-02-17T05:53:59;100332.88;;;-3.79;67.29
69622;BME280;56841;55.964;37.674;2023-02-17T05:56:25;100334.75;;;-3.84;67.28
69622;BME280;56841;55.964;37.674;2023-02-17T05:58:51;100334.91;;;-3.65;67.80
69622;BME280;56841;55.964;37.674;2023-02-17T06:01:17;100338.72;;;-3.53;67.41
69622;BME280;56841;55.964;37.674;2023-02-17T06:03:42;100349.78;;;-3.50;66.76
69622;BME280;56841;55.964;37.674;2023-02-17T06:06:08;100342.72;;;-3.45;66.96
69622;BME280;56841;55.964;37.674;2023-02-17T06:08:34;100346.75;;;-3.39;67.02
69622;BME280;56841;55.964;37.674;2023-02-17T06:11:00;100351.69;;;-3.33;66.52
69622;BME280;56841;55.964;37.674;2023-02-17T06:13:26;100342.44;;;-3.39;66.96
69622;BME280;56841;55.964;37.674;2023-02-17T06:15:52;100348.06;;;-3.29;66.92
69622;BME280;56841;55.964;37.674;2023-02-17T06:18:18;100354.22;;;-3.31;66.80
69622;BME280;56841;55.964;37.674;2023-02-17T06:20:44;100355.91;;;-3.30;66.31
69622;BME280;56841;55.964;37.674;2023-02-17T06:23:10;100359.09;;;-3.68;66.88
69622;BME280;56841;55.964;37.674;2023-02-17T06:25:36;100355.06;;;-3.53;67.39
69622;BME280;56841;55.964;37.674;2023-02-17T06:28:02;100351.94;;;-3.39;67.08
69622;BME280;56841;55.964;37.674;2023-02-17T06:30:28;100350.59;;;-3.49;67.18
69622;BME280;56841;55.964;37.674;2023-02-17T06:32:54;100354.09;;;-3.50;67.63
69622;BME280;56841;55.964;37.674;2023-02-17T06:35:19;100357.31;;;-3.66;67.17
69622;BME280;56841;55.964;37.674;2023-02-17T06:37:46;100351.50;;;-4.18;68.63
69622;BME280;56841;55.964;37.674;2023-02-17T06:40:12;100361.19;;;-4.24;69.73
69622;BME280;56841;55.964;37.674;2023-02-17T06:42:39;100359.34;;;-4.21;69.73
69622;BME280;56841;55.964;37.674;2023-02-17T06:45:04;100354.25;;;-3.99;70.19
69622;BME280;56841;55.964;37.674;2023-02-17T06:47:34;100363.63;;;-3.74;68.55
69622;BME280;56841;55.964;37.674;2023-02-17T06:50:00;100359.44;;;-3.77;68.37
69622;BME280;56841;55.964;37.674;2023-02-17T06:52:26;100353.78;;;-3.87;68.36
69622;BME280;56841;55.964;37.674;2023-02-17T06:54:52;100355.00;;;-3.73;69.38
69622;BME280;56841;55.964;37.674;2023-02-17T06:57:18;100353.97;;;-3.47;68.39
69622;BME280;56841;55.964;37.674;2023-02-17T06:59:43;100357.00;;;-3.16;67.38
69622;BME280;56841;55.964;37.674;2023-02-17T07:02:10;100344.81;;;-3.12;66.55
69622;BME280;56841;55.964;37.674;2023-02-17T07:04:37;100345.28;;;-3.02;66.13
69622;BME280;56841;55.964;37.674;2023-02-17T07:07:03;100357.09;;;-2.97;65.93
69622;BME280;56841;55.964;37.674;2023-02-17T07:09:30;100348.69;;;-2.81;65.55
69622;BME280;56841;55.964;37.674;2023-02-17T07:11:55;100353.03;;;-2.82;65.49
69622;BME280;56841;55.964;37.674;2023-02-17T07:14:23;100350.19;;;-2.76;65.83
69622;BME280;56841;55.964;37.674;2023-02-17T07:16:49;100348.53;;;-3.19;65.86
69622;BME280;56841;55.964;37.674;2023-02-17T07:19:15;100363.03;;;-3.59;67.30
69622;BME280;56841;55.964;37.674;2023-02-17T07:21:41;100349.97;;;-3.54;67.82
69622;BME280;56841;55.964;37.674;2023-02-17T07:24:07;100344.41;;;-3.45;67.05
69622;BME280;56841;55.964;37.674;2023-02-17T07:26:36;100347.16;;;-3.48;67.08
69622;BME280;56841;55.964;37.674;2023-02-17T07:29:03;100349.81;;;-3.29;66.30
69622;BME280;56841;55.964;37.674;2023-02-17T07:31:29;100341.50;;;-3.16;65.88
69622;BME280;56841;55.964;37.674;2023-02-17T07:33:55;100343.41;;;-2.99;64.97
69622;BME280;56841;55.964;37.674;2023-02-17T07:36:20;100333.53;;;-2.89;65.20
69622;BME280;56841;55.964;37.674;2023-02-17T07:38:47;100353.03;;;-2.82;65.01
69622;BME280;56841;55.964;37.674;2023-02-17T07:41:18;100344.31;;;-2.79;64.61
69622;BME280;56841;55.964;37.674;2023-02-17T07:43:45;100344.31;;;-2.59;65.33
69622;BME280;56841;55.964;37.674;2023-02-17T07:46:11;100346.88;;;-2.59;64.95
69622;BME280;56841;55.964;37.674;2023-02-17T07:48:37;100346.75;;;-2.56;64.25
69622;BME280;56841;55.964;37.674;2023-02-17T07:51:12;100333.25;;;-2.63;64.45
69622;BME280;56841;55.964;37.674;2023-02-17T07:53:38;100338.47;;;-2.64;64.45
69622;BME280;56841;55.964;37.674;2023-02-17T07:56:04;100335.31;;;-2.71;64.76
69622;BME280;56841;55.964;37.674;2023-02-17T07:58:35;100340.28;;;-3.27;66.15
69622;BME280;56841;55.964;37.674;2023-02-17T08:01:13;100338.91;;;-3.36;67.15
69622;BME280;56841;55.964;37.674;2023-02-17T08:03:39;100339.75;;;-3.15;66.52
69622;BME280;56841;55.964;37.674;2023-02-17T08:06:10;100337.59;;;-2.83;65.92
69622;BME280;56841;55.964;37.674;2023-02-17T08:08:38;100338.19;;;-2.77;64.99
69622;BME280;56841;55.964;37.674;2023-02-17T08:11:22;100332.81;;;-2.72;64.84
69622;BME280;56841;55.964;37.674;2023-02-17T08:14:07;100337.38;;;-2.58;63.96
69622;BME280;56841;55.964;37.674;2023-02-17T08:16:33;100334.19;;;-2.45;63.75
69622;BME280;56841;55.964;37.674;2023-02-17T08:18:58;100323.50;;;-2.37;63.29
69622;BME280;56841;55.964;37.674;2023-02-17T08:21:25;100321.75;;;-2.36;63.38
69622;BME280;56841;55.964;37.674;2023-02-17T08:23:52;100326.59;;;-2.10;62.88
69622;BME280;56841;55.964;37.674;2023-02-17T08:26:18;100321.63;;;-1.96;62.45
69622;BME280;56841;55.964;37.674;2023-02-17T08:28:45;100314.31;;;-1.69;62.06
69622;BME280;56841;55.964;37.674;2023-02-17T08:31:20;100315.34;;;-1.54;61.13
69622;BME280;56841;55.964;37.674;2023-02-17T08:33:47;100312.28;;;-1.62;60.35
69622;BME280;56841;55.964;37.674;2023-02-17T08:36:13;100313.81;;;-1.58;60.33
69622;BME280;56841;55.964;37.674;2023-02-17T08:38:39;100314.97;;;-1.46;59.91
69622;BME280;56841;55.964;37.674;2023-02-17T08:41:16;100317.72;;;-1.49;59.80
69622;BME280;56841;55.964;37.674;2023-02-17T08:43:43;100313.47;;;-1.33;59.59
69622;BME280;56841;55.964;37.674;2023-02-17T08:46:10;100308.84;;;-1.09;59.45
69622;BME280;56841;55.964;37.674;2023-02-17T08:48:37;100307.84;;;-0.89;58.94
69622;BME280;56841;55.964;37.674;2023-02-17T08:51:03;100309.19;;;-0.82;58.77
69622;BME280;56841;55.964;37.674;2023-02-17T08:53:29;100316.06;;;-1.33;59.42
69622;BME280;56841;55.964;37.674;2023-02-17T08:55:54;100309.72;;;-1.45;59.77
69622;BME280;56841;55.964;37.674;2023-02-17T08:58:20;100308.75;;;-1.61;60.65
69622;BME280;56841;55.964;37.674;2023-02-17T09:00:46;100315.28;;;-1.35;60.23
69622;BME280;56841;55.964;37.674;2023-02-17T09:03:12;100304.03;;;-0.99;59.45
69622;BME280;56841;55.964;37.674;2023-02-17T09:05:37;100291.13;;;-1.01;58.93
69622;BME280;56841;55.964;37.674;2023-02-17T09:08:04;100298.72;;;-0.80;58.11
69622;BME280;56841;55.964;37.674;2023-02-17T09:10:30;100296.94;;;-0.62;58.09
69622;BME280;56841;55.964;37.674;2023-02-17T09:12:56;100299.66;;;-0.48;57.22
69622;BME280;56841;55.964;37.674;2023-02-17T09:15:22;100299.47;;;-0.61;57.41
69622;BME280;56841;55.964;37.674;2023-02-17T09:17:48;100297.03;;;-0.64;57.40
69622;BME280;56841;55.964;37.674;2023-02-17T09:20:13;100294.94;;;-1.08;57.97
69622;BME280;56841;55.964;37.674;2023-02-17T09:22:39;100291.81;;;-0.97;58.19
69622;BME280;56841;55.964;37.674;2023-02-17T09:25:05;100289.88;;;-0.76;57.79
69622;BME280;56841;55.964;37.674;2023-02-17T09:27:31;100293.13;;;-0.88;57.87
69622;BME280;56841;55.964;37.674;2023-02-17T09:29:57;100288.50;;;-0.83;57.67
69622;BME280;56841;55.964;37.674;2023-02-17T09:32:23;100284.84;;;-0.79;57.85
69622;BME280;56841;55.964;37.674;2023-02-17T09:34:48;100280.47;;;-0.94;58.46
69622;BME280;56841;55.964;37.674;2023-02-17T09:37:16;100287.56;;;-1.15;58.79
69622;BME280;56841;55.964;37.674;2023-02-17T09:39:45;100288.78;;;-1.23;59.20
69622;BME280;56841;55.964;37.674;2023-02-17T09:42:19;100275.88;;;-1.07;59.04
69622;BME280;56841;55.964;37.674;2023-02-17T09:45:06;100277.06;;;-0.79;58.95
69622;BME280;56841;55.964;37.674;2023-02-17T09:47:41;100268.56;;;-0.65;57.66
69622;BME280;56841;55.964;37.674;2023-02-17T09:50:15;100271.59;;;-0.90;58.49
69622;BME280;56841;55.964;37.674;2023-02-17T09:52:49;100274.03;;;-0.87;58.45
69622;BME280;56841;55.964;37.674;2023-02-17T09:58:07;100264.16;;;-1.14;58.96
69622;BME280;56841;55.964;37.674;2023-02-17T10:00:44;100265.13;;;-0.66;58.53
69622;BME280;56841;55.964;37.674;2023-02-17T10:05:52;100263.59;;;-1.03;59.14
69622;BME280;56841;55.964;37.674;2023-02-17T10:08:23;100260.44;;;-1.43;59.29
69622;BME280;56841;55.964;37.674;2023-02-17T10:10:58;100265.19;;;-1.87;60.21
69622;BME280;56841;55.964;37.674;2023-02-17T10:13:29;100260.97;;;-2.09;61.40
69622;BME280;56841;55.964;37.674;2023-02-17T10:16:00;100260.88;;;-2.25;61.96
69622;BME280;56841;55.964;37.674;2023-02-17T10:18:40;100261.09;;;-2.48;63.06
69622;BME280;56841;55.964;37.674;2023-02-17T10:21:17;100256.38;;;-2.40;63.29
69622;BME280;56841;55.964;37.674;2023-02-17T10:23:46;100255.34;;;-2.55;63.32
69622;BME280;56841;55.964;37.674;2023-02-17T10:26:41;100252.41;;;-2.28;63.56
69622;BME280;56841;55.964;37.674;2023-02-17T10:39:14;100243.31;;;-2.18;62.18
69622;BME280;56841;55.964;37.674;2023-02-17T10:41:45;100230.84;;;-2.10;62.52
69622;BME280;56841;55.964;37.674;2023-02-17T10:44:17;100228.31;;;-1.93;62.95
69622;BME280;56841;55.964;37.674;2023-02-17T10:46:45;100221.19;;;-1.70;61.53
69622;BME280;56841;55.964;37.674;2023-02-17T10:51:50;100218.66;;;-2.25;62.23
69622;BME280;56841;55.964;37.674;2023-02-17T10:54:36;100224.25;;;-2.34;62.90
69622;BME280;56841;55.964;37.674;2023-02-17T10:57:07;100223.97;;;-2.47;63.35
69622;BME280;56841;55.964;37.674;2023-02-17T10:59:40;100222.75;;;-2.40;63.54
69622;BME280;56841;55.964;37.674;2023-02-17T11:02:33;100221.94;;;-2.22;62.59
69622;BME280;56841;55.964;37.674;2023-02-17T11:05:01;100221.53;;;-2.31;62.81
69622;BME280;56841;55.964;37.674;2023-02-17T11:07:40;100211.94;;;-2.48;63.45
69622;BME280;56841;55.964;37.674;2023-02-17T11:10:24;100214.81;;;-2.54;63.85
69622;BME280;56841;55.964;37.674;2023-02-17T11:12:51;100217.47;;;-2.56;63.86
69622;BME280;56841;55.964;37.674;2023-02-17T11:15:18;100215.78;;;-2.57;63.94
69622;BME280;56841;55.964;37.674;2023-02-17T11:17:45;100217.34;;;-2.53;63.82
69622;BME280;56841;55.964;37.674;2023-02-17T11:22:41;100205.34;;;-2.36;63.98
69622;BME280;56841;55.964;37.674;2023-02-17T11:25:26;100210.06;;;-2.45;64.11
69622;BME280;56841;55.964;37.674;2023-02-17T11:27:57;100214.81;;;-2.54;64.37
69622;BME280;56841;55.964;37.674;2023-02-17T11:30:26;100206.75;;;-2.29;63.91
69622;BME280;56841;55.964;37.674;2023-02-17T11:32:52;100204.97;;;-2.10;63.55
69622;BME280;56841;55.964;37.674;2023-02-17T11:35:25;100199.25;;;-1.80;62.96
69622;BME280;56841;55.964;37.674;2023-02-17T11:37:52;100194.81;;;-1.61;62.83
69622;BME280;56841;55.964;37.674;2023-02-17T11:40:30;100188.50;;;-1.73;62.79
69622;BME280;56841;55.964;37.674;2023-02-17T11:43:01;100196.25;;;-2.07;63.53
69622;BME280;56841;55.964;37.674;2023-02-17T11:48:44;100193.38;;;-2.01;63.94
69622;BME280;56841;55.964;37.674;2023-02-17T11:56:22;100191.91;;;-2.26;64.59
69622;BME280;56841;55.964;37.674;2023-02-17T11:59:18;100184.13;;;-2.07;63.94
69622;BME280;56841;55.964;37.674;2023-02-17T12:14:58;100171.75;;;-1.48;62.47
69622;BME280;56841;55.964;37.674;2023-02-17T12:18:01;100167.78;;;-1.55;62.14
69622;BME280;56841;55.964;37.674;2023-02-17T12:25:35;100161.69;;;-1.72;62.69
69622;BME280;56841;55.964;37.674;2023-02-17T12:36:58;100177.16;;;-2.79;65.36
69622;BME280;56841;55.964;37.674;2023-02-17T12:39:40;100176.31;;;-2.79;65.68
69622;BME280;56841;55.964;37.674;2023-02-17T12:42:23;100171.16;;;-2.79;65.95
69622;BME280;56841;55.964;37.674;2023-02-17T12:45:19;100166.97;;;-2.63;66.07
69622;BME280;56841;55.964;37.674;2023-02-17T12:50:24;100170.41;;;-2.09;64.45
69622;BME280;56841;55.964;37.674;2023-02-17T12:52:55;100163.44;;;-1.89;63.99
69622;BME280;56841;55.964;37.674;2023-02-17T12:58:12;100161.78;;;-1.91;62.94
69622;BME280;56841;55.964;37.674;2023-02-17T13:01:08;100157.28;;;-2.04;63.76
69622;BME280;56841;55.964;37.674;2023-02-17T13:03:36;100157.97;;;-2.01;63.94
69622;BME280;56841;55.964;37.674;2023-02-17T13:11:33;100151.72;;;-1.79;63.79
69622;BME280;56841;55.964;37.674;2023-02-17T13:14:25;100155.09;;;-1.60;63.31
69622;BME280;56841;55.964;37.674;2023-02-17T13:16:52;100146.25;;;-1.56;63.30
69622;BME280;56841;55.964;37.674;2023-02-17T13:19:29;100152.19;;;-1.54;62.54
69622;BME280;56841;55.964;37.674;2023-02-17T13:21:56;100147.47;;;-1.63;62.49
69622;BME280;56841;55.964;37.674;2023-02-17T13:24:38;100141.59;;;-1.49;63.01
69622;BME280;56841;55.964;37.674;2023-02-17T13:32:34;100138.59;;;-1.41;62.78
69622;BME280;56841;55.964;37.674;2023-02-17T13:35:44;100145.63;;;-1.44;62.72
69622;BME280;56841;55.964;37.674;2023-02-17T13:37:51;100136.41;;;-1.49;62.33
69622;BME280;56841;55.964;37.674;2023-02-17T13:42:53;100132.91;;;-1.48;62.74
69622;BME280;56841;55.964;37.674;2023-02-17T13:50:48;100140.28;;;-2.27;63.90
69622;BME280;56841;55.964;37.674;2023-02-17T13:55:54;100126.56;;;-2.12;64.12
69622;BME280;56841;55.964;37.674;2023-02-17T13:58:22;100124.38;;;-2.02;64.44
69622;BME280;56841;55.964;37.674;2023-02-17T14:00:48;100125.31;;;-1.86;63.92
69622;BME280;56841;55.964;37.674;2023-02-17T14:03:22;100122.47;;;-1.81;63.68
69622;BME280;56841;55.964;37.674;2023-02-17T14:05:51;100117.44;;;-2.19;64.56
69622;BME280;56841;55.964;37.674;2023-02-17T14:08:38;100119.91;;;-2.52;64.95
69622;BME280;56841;55.964;37.674;2023-02-17T14:11:13;100118.72;;;-2.45;65.83
69622;BME280;56841;55.964;37.674;2023-02-17T14:13:45;100115.38;;;-2.30;65.89
69622;BME280;56841;55.964;37.674;2023-02-17T14:16:30;100113.59;;;-2.10;65.43
69622;BME280;56841;55.964;37.674;2023-02-17T14:19:10;100115.78;;;-2.03;64.49
69622;BME280;56841;55.964;37.674;2023-02-17T14:21:40;100114.66;;;-2.15;64.81
69622;BME280;56841;55.964;37.674;2023-02-17T14:24:07;100111.97;;;-2.30;65.02
69622;BME280;56841;55.964;37.674;2023-02-17T14:26:48;100118.13;;;-2.33;65.25
69622;BME280;56841;55.964;37.674;2023-02-17T14:29:14;100116.63;;;-2.56;65.63
69622;BME280;56841;55.964;37.674;2023-02-17T14:31:49;100121.13;;;-2.78;65.94
69622;BME280;56841;55.964;37.674;2023-02-17T14:36:46;100125.00;;;-2.51;66.26
69622;BME280;56841;55.964;37.674;2023-02-17T14:39:14;100115.06;;;-2.41;65.36
69622;BME280;56841;55.964;37.674;2023-02-17T14:41:42;100117.22;;;-2.32;65.52
69622;BME280;56841;55.964;37.674;2023-02-17T14:44:09;100116.38;;;-2.32;65.58